createdAt,value
2022-10-25T00:01:17.679Z,91.26
2022-10-25T00:03:44.543Z,91.04
2022-10-25T00:06:11.524Z,91.05
2022-10-25T00:08:38.248Z,90.72
2022-10-25T00:11:05.664Z,90.60
2022-10-25T00:13:32.513Z,90.56
2022-10-25T00:15:59.152Z,90.57
2022-10-25T00:18:25.865Z,90.57
2022-10-25T00:20:52.530Z,90.73
2022-10-25T00:23:19.194Z,90.96
2022-10-25T00:25:45.914Z,90.92
2022-10-25T00:28:12.591Z,90.40
2022-10-25T00:30:39.287Z,90.32
2022-10-25T00:33:05.926Z,90.43
2022-10-25T00:35:32.556Z,90.50
2022-10-25T00:38:00.837Z,90.79
2022-10-25T00:40:27.511Z,90.90
2022-10-25T00:42:55.885Z,91.15
2022-10-25T00:45:28.619Z,91.34
2022-10-25T00:48:04.744Z,91.21
2022-10-25T00:50:34.451Z,91.23
2022-10-25T00:53:09.713Z,91.05
2022-10-25T00:55:37.052Z,91.04
2022-10-25T00:58:14.835Z,91.24
2022-10-25T01:00:41.568Z,91.26
2022-10-25T01:03:08.262Z,91.20
2022-10-25T01:05:34.977Z,91.57
2022-10-25T01:08:01.593Z,91.92
2022-10-25T01:10:28.277Z,92.20
2022-10-25T01:13:02.613Z,92.45
2022-10-25T01:15:35.723Z,92.52
2022-10-25T01:18:11.538Z,92.96
2022-10-25T01:21:10.431Z,93.33
2022-10-25T01:24:02.153Z,93.55
2022-10-25T01:26:36.553Z,93.62
2022-10-25T01:29:11.981Z,93.60
2022-10-25T01:32:15.029Z,93.72
2022-10-25T01:34:44.749Z,93.45
2022-10-25T01:37:15.004Z,93.22
2022-10-25T01:39:45.346Z,93.01
2022-10-25T01:42:20.445Z,93.03
2022-10-25T01:44:54.284Z,93.08
2022-10-25T01:47:24.996Z,93.33
2022-10-25T01:49:58.409Z,93.36
2022-10-25T01:52:25.233Z,93.42
2022-10-25T01:54:51.999Z,93.27
2022-10-25T01:57:27.805Z,92.86
2022-10-25T02:00:09.656Z,92.60
2022-10-25T02:03:00.175Z,92.41
2022-10-25T02:05:41.221Z,91.85
2022-10-25T02:08:37.436Z,91.24
2022-10-25T02:11:27.012Z,90.66
2022-10-25T02:14:16.452Z,90.31
2022-10-25T02:16:49.605Z,90.56
2022-10-25T02:19:21.323Z,90.78
2022-10-25T02:21:47.984Z,90.97
2022-10-25T02:24:19.974Z,90.86
2022-10-25T02:26:46.874Z,90.58
2022-10-25T02:29:13.653Z,90.57
2022-10-25T02:31:40.455Z,90.52
2022-10-25T02:34:07.401Z,90.65
2022-10-25T02:36:34.550Z,90.65
2022-10-25T02:39:01.232Z,90.52
2022-10-25T02:41:28.718Z,90.66
2022-10-25T02:43:55.334Z,90.80
2022-10-25T02:46:22.764Z,90.75
2022-10-25T02:48:49.896Z,90.61
2022-10-25T02:51:16.664Z,90.35
2022-10-25T02:53:43.349Z,90.19
2022-10-25T02:56:12.132Z,90.05
2022-10-25T02:58:42.256Z,90.10
2022-10-25T03:01:09.138Z,90.22
2022-10-25T03:03:36.056Z,90.33
2022-10-25T03:06:02.847Z,90.35
2022-10-25T03:08:29.903Z,90.54
2022-10-25T03:10:56.752Z,90.79
2022-10-25T03:13:23.657Z,90.64
2022-10-25T03:15:50.286Z,90.69
2022-10-25T03:18:17.264Z,90.95
2022-10-25T03:20:47.216Z,91.22
2022-10-25T03:23:13.978Z,91.56
2022-10-25T03:25:41.028Z,91.66
2022-10-25T03:28:07.934Z,91.93
2022-10-25T03:30:34.611Z,92.02
2022-10-25T03:33:01.601Z,92.04
2022-10-25T03:35:31.189Z,92.11
2022-10-25T03:37:57.821Z,92.26
2022-10-25T03:40:24.758Z,92.01
2022-10-25T03:42:51.411Z,92.08
2022-10-25T03:45:18.062Z,92.05
2022-10-25T03:47:45.168Z,91.67
2022-10-25T03:50:12.226Z,91.84
2022-10-25T03:52:50.245Z,92.31
2022-10-25T03:55:27.542Z,92.69
2022-10-25T03:57:54.342Z,92.74
2022-10-25T04:00:21.137Z,93.01
2022-10-25T04:02:47.879Z,93.13
2022-10-25T04:05:15.047Z,93.30
2022-10-25T04:07:41.678Z,93.14
2022-10-25T04:10:08.803Z,92.94
2022-10-25T04:12:42.106Z,92.82
2022-10-25T04:15:09.493Z,93.05
2022-10-25T04:17:36.196Z,93.40
2022-10-25T04:20:03.012Z,93.67
2022-10-25T04:22:29.635Z,93.75
2022-10-25T04:24:56.378Z,93.90
2022-10-25T04:27:23.109Z,93.81
2022-10-25T04:29:49.761Z,93.89
2022-10-25T04:32:16.515Z,94.11
2022-10-25T04:34:43.368Z,94.07
2022-10-25T04:37:10.163Z,94.04
2022-10-25T04:39:36.783Z,93.91
2022-10-25T04:42:03.725Z,93.73
2022-10-25T04:44:30.431Z,93.51
2022-10-25T04:46:57.038Z,93.63
2022-10-25T04:49:23.738Z,93.24
2022-10-25T04:54:18.007Z,93.02
2022-10-25T04:56:44.654Z,93.00
2022-10-25T04:59:11.417Z,93.36
2022-10-25T05:01:38.210Z,93.78
2022-10-25T05:04:04.960Z,94.20
2022-10-25T05:06:31.636Z,94.43
2022-10-25T05:08:58.266Z,94.37
2022-10-25T05:11:25.116Z,94.49
2022-10-25T05:13:51.929Z,94.60
2022-10-25T05:16:22.704Z,94.73
2022-10-25T05:18:54.526Z,94.97
2022-10-25T05:21:21.943Z,95.02
2022-10-25T05:23:48.672Z,94.92
2022-10-25T05:26:39.144Z,94.53
2022-10-25T05:29:10.059Z,94.64
2022-10-25T05:31:38.747Z,95.04
2022-10-25T05:34:05.380Z,95.40
2022-10-25T05:36:33.496Z,95.74
2022-10-25T05:39:03.919Z,95.87
2022-10-25T05:41:33.262Z,95.95
2022-10-25T05:44:02.870Z,95.93
2022-10-25T05:46:29.969Z,95.90
2022-10-25T05:48:58.424Z,96.03
2022-10-25T05:51:34.206Z,96.04
2022-10-25T05:54:07.036Z,96.29
2022-10-25T05:56:34.061Z,96.20
2022-10-25T05:59:11.571Z,96.09
2022-10-25T06:02:17.547Z,96.25
2022-10-25T06:04:47.842Z,96.07
2022-10-25T06:07:17.223Z,95.77
2022-10-25T06:09:44.657Z,95.50
2022-10-25T06:12:11.444Z,95.44
2022-10-25T06:14:38.106Z,95.57
2022-10-25T06:17:04.735Z,95.71
2022-10-25T06:19:31.359Z,95.50
2022-10-25T06:21:58.171Z,95.57
2022-10-25T06:24:24.827Z,95.95
2022-10-25T06:26:51.497Z,96.04
2022-10-25T06:29:18.204Z,96.42
2022-10-25T06:31:45.137Z,96.36
2022-10-25T06:34:11.793Z,95.62
2022-10-25T06:36:38.447Z,95.34
2022-10-25T06:39:06.698Z,94.88
2022-10-25T06:41:33.841Z,94.91
2022-10-25T06:44:05.373Z,94.59
2022-10-25T06:46:40.584Z,92.51
2022-10-25T06:49:19.265Z,91.12
2022-10-25T06:51:45.965Z,90.39
2022-10-25T06:54:12.621Z,89.61
2022-10-25T06:56:39.361Z,89.24
2022-10-25T06:59:07.041Z,88.63
2022-10-25T07:01:34.039Z,88.43
2022-10-25T07:04:02.375Z,88.30
2022-10-25T07:08:58.822Z,86.77
2022-10-25T07:11:26.261Z,86.23
2022-10-25T07:13:52.953Z,86.24
2022-10-25T07:16:20.336Z,86.05
2022-10-25T07:18:47.353Z,85.56
2022-10-25T07:21:16.330Z,85.01
2022-10-25T07:23:43.145Z,84.33
2022-10-25T07:26:11.482Z,83.25
2022-10-25T07:28:38.161Z,81.90
2022-10-25T07:31:05.393Z,81.94
2022-10-25T07:33:32.312Z,81.44
2022-10-25T07:36:06.547Z,80.55
2022-10-25T07:38:37.140Z,80.32
2022-10-25T07:41:03.879Z,78.76
2022-10-25T07:43:30.520Z,78.04
2022-10-25T07:45:57.293Z,77.86
2022-10-25T07:48:24.058Z,77.74
2022-10-25T07:50:50.878Z,77.32
2022-10-25T07:53:17.688Z,76.80
2022-10-25T07:55:50.284Z,76.56
2022-10-25T07:58:16.961Z,75.86
2022-10-25T08:00:43.595Z,75.13
2022-10-25T08:03:10.267Z,74.13
2022-10-25T08:05:47.085Z,73.46
2022-10-25T08:08:14.410Z,72.97
2022-10-25T09:46:57.049Z,76.52
2022-10-25T09:49:58.244Z,76.11
2022-10-25T09:52:26.960Z,75.73
2022-10-25T09:55:16.039Z,75.72
2022-10-25T09:57:43.057Z,75.49
2022-10-25T10:00:13.280Z,75.04
2022-10-25T10:02:40.222Z,74.64
2022-10-25T10:05:15.606Z,74.57
2022-10-25T10:07:42.280Z,74.56
2022-10-25T10:10:11.549Z,74.24
2022-10-25T10:12:51.870Z,74.21
2022-10-25T10:15:28.096Z,74.14
2022-10-25T10:18:25.513Z,74.26
2022-10-25T10:21:01.443Z,74.40
2022-10-25T10:23:29.693Z,74.07
2022-10-25T10:25:56.380Z,73.91
2022-10-25T10:28:23.019Z,74.09
2022-10-25T10:30:57.032Z,74.13
2022-10-25T10:33:23.777Z,74.36
2022-10-25T10:35:54.305Z,74.44
2022-10-25T10:38:28.274Z,74.66
2022-10-25T10:41:28.544Z,74.40
2022-10-25T10:44:14.553Z,74.31
2022-10-25T10:46:45.803Z,74.60
2022-10-25T10:49:12.488Z,75.22
2022-10-25T10:51:44.695Z,75.58
2022-10-25T10:54:33.036Z,76.00
2022-10-25T10:57:04.216Z,76.14
2022-10-25T10:59:35.240Z,76.49
2022-10-25T11:02:34.622Z,76.65
2022-10-25T11:05:31.016Z,77.14
2022-10-25T11:07:59.495Z,77.90
2022-10-25T11:10:32.982Z,78.17
2022-10-25T14:06:48.767Z,100.00
2022-10-25T14:09:45.102Z,100.00
2022-10-25T14:12:16.760Z,100.00
2022-10-25T14:15:08.145Z,100.00
2022-10-25T14:17:40.784Z,100.00
2022-10-25T14:20:07.594Z,100.00
2022-10-25T14:22:36.256Z,100.00
2022-10-25T14:25:06.182Z,100.00
2022-10-25T14:27:36.662Z,100.00
2022-10-25T14:30:13.693Z,100.00
2022-10-25T14:32:49.435Z,100.00
2022-10-25T14:35:16.542Z,100.00
2022-10-25T14:37:43.281Z,100.00
2022-10-25T14:40:21.334Z,100.00
2022-10-25T14:42:48.293Z,100.00
2022-10-25T14:45:23.624Z,100.00
2022-10-25T14:47:51.037Z,100.00
2022-10-25T14:50:22.111Z,100.00
2022-10-25T14:52:49.827Z,100.00
2022-10-25T14:55:28.465Z,100.00
2022-10-25T14:57:55.130Z,100.00
2022-10-25T15:00:22.946Z,100.00
2022-10-25T15:02:56.277Z,100.00
2022-10-25T15:05:24.284Z,100.00
2022-10-25T15:07:58.254Z,100.00
2022-10-25T15:10:35.545Z,100.00
2022-10-25T15:13:12.310Z,100.00
2022-10-25T15:15:44.942Z,100.00
2022-10-25T15:18:26.986Z,100.00
2022-10-25T15:21:12.959Z,99.95
2022-10-25T15:23:40.857Z,99.64
2022-10-25T15:26:27.782Z,99.24
2022-10-25T15:28:56.560Z,99.13
2022-10-25T15:31:25.095Z,98.83
2022-10-25T15:34:02.403Z,98.53
2022-10-25T15:36:36.004Z,98.48
2022-10-25T15:39:12.732Z,98.28
2022-10-25T15:41:42.498Z,98.41
2022-10-25T15:44:09.180Z,98.49
2022-10-25T15:46:36.402Z,98.44
2022-10-25T15:49:08.301Z,98.41
2022-10-25T15:51:37.965Z,98.26
2022-10-25T15:54:04.859Z,98.21
2022-10-25T15:56:31.508Z,97.92
2022-10-25T15:59:00.382Z,97.95
2022-10-25T16:01:27.275Z,97.88
2022-10-25T16:03:54.099Z,97.84
2022-10-25T16:06:20.837Z,97.41
2022-10-25T16:08:48.777Z,97.45
2022-10-25T16:11:17.197Z,97.62
2022-10-25T16:13:44.413Z,97.91
2022-10-25T16:16:42.283Z,98.10
2022-10-25T16:19:15.906Z,98.23
2022-10-25T16:21:43.030Z,98.04
2022-10-25T16:24:10.137Z,98.03
2022-10-25T16:26:38.527Z,98.26
2022-10-25T16:29:06.416Z,98.24
2022-10-25T16:31:33.145Z,98.34
2022-10-25T16:33:59.836Z,98.39
2022-10-25T16:36:26.534Z,98.30
2022-10-25T16:38:53.243Z,98.22
2022-10-25T16:41:25.324Z,98.26
2022-10-25T16:43:52.111Z,97.86
2022-10-25T16:46:18.810Z,97.55
2022-10-25T16:48:45.580Z,97.44
2022-10-25T16:51:13.663Z,97.49
2022-10-25T16:53:40.702Z,98.11
2022-10-25T16:56:09.316Z,98.53
2022-10-25T16:58:35.998Z,98.95
2022-10-25T17:01:02.758Z,99.12
2022-10-25T17:03:29.570Z,99.30
2022-10-25T17:05:56.264Z,99.17
2022-10-25T17:08:22.989Z,99.25
2022-10-25T17:10:49.694Z,99.34
2022-10-25T17:13:16.459Z,99.22
2022-10-25T17:15:43.137Z,99.24
2022-10-25T17:18:12.809Z,99.29
2022-10-25T17:20:41.957Z,99.08
2022-10-25T17:23:08.592Z,99.14
2022-10-25T17:25:35.233Z,99.00
2022-10-25T17:28:01.882Z,99.03
2022-10-25T17:30:28.970Z,98.95
2022-10-25T17:32:55.643Z,98.79
2022-10-25T17:35:28.595Z,98.86
2022-10-25T17:37:56.444Z,98.77
2022-10-25T17:40:23.096Z,98.62
2022-10-25T17:42:49.888Z,98.50
2022-10-25T18:42:47.717Z,100.00
2022-10-25T18:45:14.553Z,100.00
2022-10-25T18:47:41.586Z,100.00
2022-10-25T18:53:17.061Z,100.00
2022-10-25T18:55:48.803Z,100.00
2022-10-25T18:58:27.200Z,100.00
2022-10-25T19:00:53.967Z,100.00
2022-10-25T19:03:20.638Z,100.00
2022-10-25T19:05:47.383Z,100.00
2022-10-25T19:08:14.107Z,100.00
2022-10-25T19:10:41.215Z,100.00
2022-10-25T19:13:08.596Z,100.00
2022-10-25T19:15:35.310Z,100.00
2022-10-25T19:18:02.008Z,100.00
2022-10-25T19:20:28.707Z,100.00
2022-10-25T19:22:58.744Z,100.00
2022-10-25T19:25:28.693Z,100.00
2022-10-25T19:27:55.800Z,100.00
2022-10-25T19:30:22.693Z,100.00
2022-10-25T19:32:49.453Z,100.00
2022-10-25T19:35:16.405Z,100.00
2022-10-25T19:37:43.208Z,99.83
2022-10-25T19:40:10.487Z,99.82
2022-10-25T19:42:37.599Z,99.87
2022-10-25T19:45:05.141Z,99.85
2022-10-25T19:47:33.731Z,99.76
2022-10-25T19:50:00.453Z,99.71
2022-10-25T19:52:27.389Z,99.50
2022-10-25T19:54:54.371Z,99.40
2022-10-25T19:57:21.266Z,99.35
2022-10-25T19:59:47.939Z,99.15
2022-10-25T20:02:14.703Z,99.13
2022-10-25T20:04:59.192Z,99.05
2022-10-25T20:07:28.112Z,99.04
2022-10-25T20:09:54.756Z,98.86
2022-10-25T20:12:21.413Z,98.79
2022-10-25T20:14:48.121Z,98.76
2022-10-25T20:17:15.472Z,98.77
2022-10-25T20:19:42.108Z,98.72
2022-10-25T20:22:08.784Z,98.38
2022-10-25T20:24:35.513Z,98.44
2022-10-25T20:27:02.211Z,98.14
2022-10-25T20:29:29.278Z,98.18
2022-10-25T20:31:55.996Z,97.97
2022-10-25T20:34:23.108Z,97.84
2022-10-25T20:36:49.850Z,97.70
2022-10-25T20:39:16.718Z,97.69
2022-10-25T20:41:43.404Z,97.55
2022-10-25T20:44:10.252Z,97.65
2022-10-25T20:46:36.900Z,97.73
2022-10-25T20:49:04.826Z,97.59
2022-10-25T20:51:31.575Z,97.48
2022-10-25T20:53:58.273Z,97.37
2022-10-25T20:56:25.065Z,97.11
2022-10-25T20:58:51.825Z,97.11
2022-10-25T21:01:18.474Z,96.91
2022-10-25T21:03:45.277Z,96.98
2022-10-25T21:06:13.448Z,96.97
2022-10-25T21:08:40.133Z,96.61
2022-10-25T21:11:09.423Z,96.65
2022-10-25T21:13:37.026Z,96.67
2022-10-25T21:16:14.058Z,96.58
2022-10-25T21:18:41.493Z,96.50
2022-10-25T21:21:10.019Z,96.36
2022-10-25T21:23:36.777Z,96.46
2022-10-25T21:26:04.912Z,96.33
2022-10-25T21:28:32.607Z,96.60
2022-10-25T21:31:03.520Z,96.43
2022-10-25T21:33:30.197Z,96.16
2022-10-25T21:36:10.050Z,96.39
2022-10-25T21:38:36.757Z,96.36
2022-10-25T21:41:07.889Z,96.39
2022-10-25T21:43:34.756Z,96.58
2022-10-25T21:46:04.615Z,96.45
2022-10-25T21:48:31.250Z,96.41
2022-10-25T21:51:01.110Z,96.53
2022-10-25T21:53:28.007Z,96.52
2022-10-25T21:56:08.388Z,96.66
2022-10-25T21:58:35.074Z,96.81
2022-10-25T22:01:01.717Z,96.86
2022-10-25T22:03:30.001Z,96.84
2022-10-25T22:05:57.425Z,96.74
2022-10-25T22:08:24.057Z,96.79
2022-10-25T22:13:30.055Z,96.82
2022-10-25T22:15:58.177Z,96.98
2022-10-25T22:18:24.901Z,97.00
2022-10-25T22:20:56.213Z,97.14
2022-10-25T22:23:24.333Z,97.14
2022-10-25T22:25:50.976Z,97.06
2022-10-25T22:28:17.661Z,97.19
2022-10-25T22:30:44.280Z,97.10
2022-10-25T22:33:10.994Z,97.20
2022-10-25T22:35:37.667Z,97.24
2022-10-25T22:38:04.289Z,97.10
2022-10-25T22:40:30.907Z,97.08
2022-10-25T22:42:57.547Z,97.17
2022-10-25T22:45:24.239Z,97.05
2022-10-25T22:47:51.953Z,96.84
2022-10-25T22:50:18.605Z,96.67
2022-10-25T22:55:16.910Z,96.57
2022-10-25T22:57:43.665Z,96.61
2022-10-25T23:00:10.914Z,96.59
2022-10-25T23:02:37.645Z,96.49
2022-10-25T23:05:04.659Z,96.42
2022-10-25T23:07:31.259Z,96.48
2022-10-25T23:09:57.891Z,96.62
2022-10-25T23:12:24.555Z,96.54
2022-10-25T23:14:51.221Z,96.52
2022-10-25T23:17:17.902Z,96.55
2022-10-25T23:19:44.530Z,96.62
2022-10-25T23:22:11.188Z,96.68
2022-10-25T23:24:37.791Z,96.80
2022-10-25T23:27:04.449Z,96.65
2022-10-25T23:29:31.169Z,96.56
2022-10-25T23:31:57.804Z,96.46
2022-10-25T23:36:56.096Z,96.43
2022-10-25T23:39:22.743Z,96.43
2022-10-25T23:41:51.932Z,96.27
2022-10-25T23:44:18.717Z,96.19
2022-10-25T23:46:45.527Z,95.91
2022-10-25T23:49:12.165Z,95.85
2022-10-25T23:51:38.843Z,95.91
2022-10-25T23:54:09.455Z,95.92
2022-10-25T23:56:36.543Z,95.70
2022-10-25T23:59:03.184Z,95.69
